createdAt,value
2024-02-08T00:02:26.090Z,92.19
2024-02-08T00:05:28.342Z,92.19
2024-02-08T00:08:30.370Z,91.87
2024-02-08T00:11:33.069Z,92.30
2024-02-08T00:14:35.079Z,91.83
2024-02-08T00:17:37.158Z,92.27
2024-02-08T00:20:39.092Z,91.72
2024-02-08T00:23:41.140Z,91.76
2024-02-08T00:26:43.116Z,92.10
2024-02-08T00:29:45.311Z,91.73
2024-02-08T00:32:47.885Z,91.64
2024-02-08T00:35:49.847Z,91.89
2024-02-08T00:38:52.891Z,91.89
2024-02-08T00:41:58.590Z,91.98
2024-02-08T00:45:00.645Z,91.67
2024-02-08T00:48:03.626Z,91.87
2024-02-08T00:51:08.314Z,92.01
2024-02-08T00:54:10.513Z,91.59
2024-02-08T00:57:12.384Z,92.42
2024-02-08T01:00:14.802Z,91.72
2024-02-08T01:03:16.965Z,92.04
2024-02-08T01:06:19.009Z,92.01
2024-02-08T01:09:21.037Z,91.70
2024-02-08T01:12:24.708Z,91.53
2024-02-08T01:15:27.968Z,90.94
2024-02-08T01:18:30.149Z,90.74
2024-02-08T01:21:32.804Z,90.70
2024-02-08T01:24:35.999Z,90.96
2024-02-08T01:27:37.996Z,90.89
2024-02-08T01:30:40.172Z,90.71
2024-02-08T01:33:43.460Z,90.89
2024-02-08T01:36:45.600Z,91.36
2024-02-08T01:39:47.530Z,91.31
2024-02-08T01:42:49.401Z,91.29
2024-02-08T01:45:51.391Z,91.32
2024-02-08T01:48:54.731Z,91.38
2024-02-08T01:52:04.305Z,91.42
2024-02-08T01:55:07.687Z,91.42
2024-02-08T01:58:09.881Z,91.55
2024-02-08T02:01:12.603Z,91.65
2024-02-08T02:04:17.124Z,91.75
2024-02-08T02:07:20.946Z,91.92
2024-02-08T02:10:31.231Z,91.54
2024-02-08T02:13:37.371Z,91.37
2024-02-08T02:16:39.401Z,91.78
2024-02-08T02:19:42.330Z,91.90
2024-02-08T02:22:45.456Z,91.61
2024-02-08T02:25:53.008Z,91.55
2024-02-08T02:28:56.104Z,91.42
2024-02-08T02:32:01.048Z,91.65
2024-02-08T02:35:03.452Z,91.12
2024-02-08T02:38:06.021Z,91.10
2024-02-08T02:41:09.059Z,91.50
2024-02-08T02:44:11.027Z,91.85
2024-02-08T02:47:13.221Z,91.95
2024-02-08T02:50:18.410Z,92.16
2024-02-08T02:53:20.562Z,91.99
2024-02-08T02:56:22.556Z,92.23
2024-02-08T02:59:27.861Z,92.11
2024-02-08T03:02:30.410Z,92.19
2024-02-08T03:05:33.931Z,91.92
2024-02-08T03:08:39.251Z,92.20
2024-02-08T03:11:42.774Z,91.72
2024-02-08T03:14:58.903Z,91.80
2024-02-08T03:18:01.814Z,91.67
2024-02-08T03:21:03.812Z,91.80
2024-02-08T03:24:09.471Z,92.25
2024-02-08T03:27:15.834Z,92.00
2024-02-08T03:30:21.259Z,91.98
2024-02-08T03:33:23.669Z,92.07
2024-02-08T03:36:25.805Z,91.89
2024-02-08T03:39:28.378Z,91.90
2024-02-08T03:42:30.678Z,91.88
2024-02-08T03:45:32.619Z,92.09
2024-02-08T03:48:34.854Z,92.04
2024-02-08T03:51:38.688Z,92.47
2024-02-08T03:54:42.227Z,92.46
2024-02-08T03:57:50.351Z,92.23
2024-02-08T04:00:55.285Z,92.09
2024-02-08T04:04:13.197Z,92.20
2024-02-08T04:07:35.603Z,92.14
2024-02-08T04:10:37.771Z,92.37
2024-02-08T04:13:58.392Z,92.29
2024-02-08T04:17:18.718Z,92.59
2024-02-08T04:20:39.277Z,92.30
2024-02-08T04:23:59.801Z,92.62
2024-02-08T04:27:20.381Z,92.17
2024-02-08T04:30:40.838Z,92.81
2024-02-08T04:34:01.420Z,92.53
2024-02-08T04:37:22.187Z,92.56
2024-02-08T04:40:42.947Z,92.98
2024-02-08T04:44:03.391Z,93.43
2024-02-08T04:47:23.810Z,92.97
2024-02-08T04:50:44.261Z,92.96
2024-02-08T04:53:46.437Z,93.09
2024-02-08T04:56:48.525Z,93.08
2024-02-08T04:59:53.274Z,93.41
2024-02-08T05:03:02.121Z,92.64
2024-02-08T05:06:16.329Z,92.83
2024-02-08T05:09:21.294Z,93.12
2024-02-08T05:12:23.403Z,93.08
2024-02-08T05:15:26.750Z,93.12
2024-02-08T05:18:30.127Z,92.81
2024-02-08T05:21:35.022Z,92.91
2024-02-08T05:24:36.842Z,92.95
2024-02-08T05:27:39.042Z,93.24
2024-02-08T05:30:40.924Z,93.38
2024-02-08T05:33:43.821Z,92.55
2024-02-08T05:36:46.818Z,92.48
2024-02-08T05:39:49.288Z,92.60
2024-02-08T05:42:52.829Z,92.29
2024-02-08T05:45:55.862Z,91.89
2024-02-08T05:49:13.217Z,91.99
2024-02-08T05:52:16.483Z,92.11
2024-02-08T05:55:20.814Z,92.14
2024-02-08T05:58:22.917Z,91.88
2024-02-08T06:01:25.402Z,91.98
2024-02-08T06:04:35.862Z,92.30
2024-02-08T06:07:38.631Z,92.48
2024-02-08T06:10:43.723Z,93.14
2024-02-08T06:13:56.296Z,93.54
2024-02-08T06:16:58.746Z,93.79
2024-02-08T06:20:01.880Z,93.78
2024-02-08T06:23:24.248Z,93.66
2024-02-08T06:26:29.413Z,93.47
2024-02-08T06:29:48.093Z,93.17
2024-02-08T06:32:58.941Z,93.34
2024-02-08T06:36:01.012Z,93.05
2024-02-08T06:39:25.060Z,92.69
2024-02-08T06:43:08.390Z,92.22
2024-02-08T06:46:11.490Z,91.89
2024-02-08T06:49:32.171Z,92.32
2024-02-08T06:52:53.635Z,91.75
2024-02-08T06:56:14.246Z,91.48
2024-02-08T06:59:35.225Z,90.68
2024-02-08T07:02:58.026Z,89.94
2024-02-08T07:06:18.735Z,88.53
2024-02-08T07:09:39.335Z,88.08
2024-02-08T07:13:00.076Z,87.65
2024-02-08T07:16:20.423Z,87.25
2024-02-08T07:19:41.788Z,86.69
2024-02-08T07:23:02.617Z,86.38
2024-02-08T07:26:23.303Z,86.73
2024-02-08T07:29:43.975Z,86.12
2024-02-08T07:33:04.503Z,86.54
2024-02-08T07:36:25.480Z,86.12
2024-02-08T07:39:36.480Z,85.61
2024-02-08T07:42:43.278Z,84.79
2024-02-08T07:45:47.562Z,84.85
2024-02-08T07:48:49.620Z,85.42
2024-02-08T07:51:52.001Z,84.71
2024-02-08T07:55:15.167Z,84.02
2024-02-08T07:58:20.189Z,84.56
2024-02-08T08:01:22.273Z,84.64
2024-02-08T08:04:44.151Z,84.43
2024-02-08T08:07:47.091Z,83.49
2024-02-08T08:10:49.170Z,84.13
2024-02-08T08:13:57.147Z,83.69
2024-02-08T08:17:14.641Z,83.91
2024-02-08T08:20:35.202Z,83.61
2024-02-08T08:23:42.500Z,83.44
2024-02-08T08:26:45.634Z,83.19
2024-02-08T08:29:47.598Z,82.39
2024-02-08T08:32:52.255Z,82.41
2024-02-08T08:35:56.209Z,83.03
2024-02-08T08:39:37.429Z,82.60
2024-02-08T08:42:41.765Z,82.50
2024-02-08T08:45:44.466Z,82.71
2024-02-08T08:48:52.361Z,82.30
2024-02-08T08:52:00.505Z,81.81
2024-02-08T08:55:19.156Z,81.86
2024-02-08T08:58:24.120Z,81.34
2024-02-08T09:01:26.436Z,80.68
2024-02-08T09:04:34.333Z,80.67
2024-02-08T09:07:39.290Z,80.32
2024-02-08T09:10:44.258Z,79.75
2024-02-08T09:13:52.588Z,80.00
2024-02-08T09:16:59.133Z,80.47
2024-02-08T09:20:01.474Z,79.79
2024-02-08T09:23:14.444Z,78.85
2024-02-08T09:26:16.687Z,77.95
2024-02-08T09:29:30.152Z,78.86
2024-02-08T09:32:47.496Z,77.74
2024-02-08T09:35:49.489Z,77.51
2024-02-08T09:38:52.539Z,77.40
2024-02-08T09:41:55.134Z,77.12
2024-02-08T09:45:15.350Z,77.72
2024-02-08T09:48:27.182Z,77.75
2024-02-08T09:51:36.565Z,76.84
2024-02-08T09:54:38.680Z,77.18
2024-02-08T09:57:47.714Z,77.03
2024-02-08T10:00:59.386Z,76.36
2024-02-08T10:04:16.444Z,75.11
2024-02-08T10:07:20.583Z,74.98
2024-02-08T10:10:28.242Z,74.96
2024-02-08T10:13:53.337Z,75.18
2024-02-08T10:17:02.054Z,75.78
2024-02-08T10:20:23.679Z,75.84
2024-02-08T10:23:35.208Z,75.71
2024-02-08T10:26:40.812Z,75.17
2024-02-08T10:29:45.363Z,75.46
2024-02-08T10:32:53.408Z,75.94
2024-02-08T10:36:08.758Z,75.78
2024-02-08T10:39:25.873Z,75.55
2024-02-08T10:42:39.660Z,75.07
2024-02-08T10:45:45.587Z,74.16
2024-02-08T10:48:51.114Z,74.27
2024-02-08T10:52:02.297Z,73.60
2024-02-08T10:55:19.964Z,74.21
2024-02-08T10:58:22.926Z,73.43
2024-02-08T11:01:34.904Z,72.86
2024-02-08T11:04:42.816Z,72.87
2024-02-08T11:07:47.573Z,74.04
2024-02-08T11:10:55.877Z,73.04
2024-02-08T11:14:01.243Z,72.76
2024-02-08T11:17:06.896Z,71.94
2024-02-08T11:20:18.584Z,72.26
2024-02-08T11:23:25.143Z,72.75
2024-02-08T11:26:27.926Z,72.36
2024-02-08T11:29:31.109Z,71.94
2024-02-08T11:32:35.856Z,71.97
2024-02-08T11:35:46.777Z,71.38
2024-02-08T11:38:59.456Z,71.67
2024-02-08T11:42:02.166Z,71.92
2024-02-08T11:45:10.190Z,71.30
2024-02-08T11:48:27.733Z,70.12
2024-02-08T11:51:35.146Z,71.56
2024-02-08T11:54:41.134Z,71.37
2024-02-08T11:57:43.362Z,71.86
2024-02-08T12:00:50.661Z,72.46
2024-02-08T12:03:54.653Z,72.29
2024-02-08T12:07:05.875Z,72.00
2024-02-08T12:10:11.006Z,71.97
2024-02-08T12:13:15.463Z,71.92
2024-02-08T12:16:19.224Z,71.90
2024-02-08T12:19:21.339Z,71.98
2024-02-08T12:22:23.432Z,72.01
2024-02-08T12:25:29.096Z,72.00
2024-02-08T12:28:35.801Z,72.69
2024-02-08T12:31:37.952Z,72.82
2024-02-08T12:34:40.216Z,72.98
2024-02-08T12:37:44.634Z,72.24
2024-02-08T12:40:47.712Z,72.10
2024-02-08T12:43:57.105Z,71.44
2024-02-08T12:46:59.213Z,71.69
2024-02-08T12:50:11.448Z,71.50
2024-02-08T12:53:22.301Z,71.90
2024-02-08T12:56:24.273Z,71.34
2024-02-08T12:59:30.156Z,71.73
2024-02-08T13:02:35.000Z,71.43
2024-02-08T13:05:39.002Z,71.94
2024-02-08T13:08:46.319Z,71.34
2024-02-08T13:11:48.774Z,71.85
2024-02-08T13:14:50.822Z,72.11
2024-02-08T13:17:53.323Z,72.49
2024-02-08T13:20:55.501Z,72.01
2024-02-08T13:23:58.259Z,71.78
2024-02-08T13:27:04.924Z,71.93
2024-02-08T13:30:17.517Z,71.89
2024-02-08T13:33:20.837Z,72.35
2024-02-08T13:36:26.481Z,72.40
2024-02-08T13:39:28.792Z,72.66
2024-02-08T13:42:43.182Z,72.40
2024-02-08T13:45:55.928Z,72.26
2024-02-08T13:49:01.240Z,72.37
2024-02-08T13:52:03.585Z,72.21
2024-02-08T13:55:08.786Z,72.61
2024-02-08T13:58:10.781Z,72.28
2024-02-08T14:01:13.040Z,72.22
2024-02-08T14:04:22.325Z,71.95
2024-02-08T14:07:27.345Z,71.96
2024-02-08T14:10:33.048Z,71.62
2024-02-08T14:13:37.303Z,72.13
2024-02-08T14:16:41.575Z,71.18
2024-02-08T14:19:45.189Z,71.06
2024-02-08T14:22:47.443Z,70.89
2024-02-08T14:26:08.306Z,70.82
2024-02-08T14:29:10.508Z,70.88
2024-02-08T14:32:21.088Z,70.38
2024-02-08T14:35:33.376Z,70.60
2024-02-08T14:38:42.324Z,70.66
2024-02-08T14:41:45.334Z,70.06
2024-02-08T14:44:53.062Z,69.50
2024-02-08T14:47:55.019Z,70.04
2024-02-08T14:51:17.588Z,69.45
2024-02-08T14:54:20.486Z,69.96
2024-02-08T14:57:25.829Z,70.03
2024-02-08T15:00:34.060Z,70.51
2024-02-08T15:03:40.340Z,70.61
2024-02-08T15:06:43.872Z,70.53
2024-02-08T15:09:45.763Z,70.75
2024-02-08T15:13:14.147Z,70.73
2024-02-08T15:16:32.097Z,71.00
2024-02-08T15:19:46.708Z,71.13
2024-02-08T15:22:50.665Z,71.14
2024-02-08T15:25:54.982Z,71.35
2024-02-08T15:28:58.456Z,70.91
2024-02-08T15:32:11.830Z,70.90
2024-02-08T15:35:37.344Z,70.69
2024-02-08T15:38:56.651Z,71.00
2024-02-08T15:42:02.943Z,71.20
2024-02-08T15:45:12.192Z,71.48
2024-02-08T15:48:15.927Z,71.56
2024-02-08T15:51:30.091Z,71.11
2024-02-08T15:54:39.674Z,71.16
2024-02-08T15:57:46.784Z,71.20
2024-02-08T16:01:08.370Z,71.24
2024-02-08T16:04:30.708Z,71.18
2024-02-08T16:07:34.264Z,70.70
2024-02-08T16:10:36.607Z,71.05
2024-02-08T16:13:48.127Z,70.90
2024-02-08T16:17:08.393Z,71.04
2024-02-08T16:20:17.659Z,71.19
2024-02-08T16:23:21.663Z,71.12
2024-02-08T16:26:32.059Z,71.42
2024-02-08T16:29:36.130Z,71.75
2024-02-08T16:32:53.418Z,71.61
2024-02-08T16:36:10.308Z,71.83
2024-02-08T16:39:15.022Z,72.15
2024-02-08T16:42:24.765Z,72.32
2024-02-08T16:45:35.771Z,71.90
2024-02-08T16:48:46.207Z,72.11
2024-02-08T16:51:52.310Z,72.38
2024-02-08T16:55:01.654Z,72.29
2024-02-08T16:58:18.789Z,72.07
2024-02-08T17:01:29.808Z,72.45
2024-02-08T17:04:49.244Z,72.63
2024-02-08T17:07:52.898Z,73.10
2024-02-08T17:11:02.651Z,72.71
2024-02-08T17:14:05.055Z,72.67
2024-02-08T17:17:23.900Z,72.58
2024-02-08T17:20:46.336Z,72.15
2024-02-08T17:24:02.938Z,71.62
2024-02-08T17:27:29.110Z,71.29
2024-02-08T17:30:49.991Z,71.41
2024-02-08T17:33:51.927Z,71.49
2024-02-08T17:36:56.732Z,71.17
2024-02-08T17:39:58.917Z,71.39
2024-02-08T17:43:10.421Z,71.37
2024-02-08T17:46:13.042Z,71.44
2024-02-08T17:49:21.380Z,71.54
2024-02-08T17:52:26.900Z,71.35
2024-02-08T17:55:37.312Z,71.39
2024-02-08T17:58:40.778Z,71.52
2024-02-08T18:01:57.287Z,71.73
2024-02-08T18:05:02.678Z,71.95
2024-02-08T18:08:07.989Z,72.04
2024-02-08T18:11:10.662Z,72.36
2024-02-08T18:14:16.828Z,72.32
2024-02-08T18:17:25.727Z,72.58
2024-02-08T18:20:31.633Z,72.67
2024-02-08T18:23:34.562Z,73.15
2024-02-08T18:26:36.831Z,73.39
2024-02-08T18:29:38.702Z,73.98
2024-02-08T18:32:42.082Z,73.79
2024-02-08T18:35:46.833Z,73.75
2024-02-08T18:38:49.289Z,74.03
2024-02-08T18:41:52.116Z,74.57
2024-02-08T18:44:54.788Z,74.77
2024-02-08T18:48:02.385Z,74.55
2024-02-08T18:51:04.627Z,74.43
2024-02-08T18:54:12.537Z,75.19
2024-02-08T18:57:17.501Z,74.66
2024-02-08T19:00:24.122Z,74.97
2024-02-08T19:03:32.211Z,74.88
2024-02-08T19:06:40.889Z,74.79
2024-02-08T19:09:44.728Z,74.87
2024-02-08T19:12:53.163Z,75.04
2024-02-08T19:16:09.612Z,74.97
2024-02-08T19:19:13.265Z,75.24
2024-02-08T19:22:19.302Z,75.35
2024-02-08T19:25:23.503Z,74.98
2024-02-08T19:28:26.896Z,75.00
2024-02-08T19:31:31.155Z,75.05
2024-02-08T19:34:33.656Z,75.32
2024-02-08T19:37:35.779Z,75.34
2024-02-08T19:40:38.470Z,74.72
2024-02-08T19:43:40.640Z,74.77
2024-02-08T19:46:53.881Z,74.23
2024-02-08T19:50:06.836Z,74.42
2024-02-08T19:53:10.847Z,74.41
2024-02-08T19:56:12.761Z,74.44
2024-02-08T19:59:20.822Z,74.78
2024-02-08T20:02:29.037Z,74.81
2024-02-08T20:05:34.015Z,74.57
2024-02-08T20:08:39.721Z,74.88
2024-02-08T20:11:43.030Z,74.53
2024-02-08T20:14:45.100Z,74.76
2024-02-08T20:17:51.200Z,74.43
2024-02-08T20:20:53.961Z,74.33
2024-02-08T20:23:56.074Z,74.47
2024-02-08T20:27:00.414Z,74.62
2024-02-08T20:30:08.447Z,74.75
2024-02-08T20:33:15.024Z,74.41
2024-02-08T20:36:17.765Z,74.79
2024-02-08T20:39:19.902Z,75.29
2024-02-08T20:42:25.191Z,75.39
2024-02-08T20:45:28.655Z,75.43
2024-02-08T20:48:32.121Z,75.64
2024-02-08T20:51:37.236Z,75.91
2024-02-08T20:54:45.791Z,76.17
2024-02-08T20:57:52.037Z,76.30
2024-02-08T21:00:54.447Z,76.30
2024-02-08T21:03:57.404Z,76.23
2024-02-08T21:07:00.076Z,75.76
2024-02-08T21:10:02.312Z,75.57
2024-02-08T21:13:04.419Z,75.41
2024-02-08T21:16:06.472Z,75.51
2024-02-08T21:19:11.023Z,75.73
2024-02-08T21:22:15.773Z,75.64
2024-02-08T21:25:20.085Z,75.90
2024-02-08T21:28:26.603Z,75.70
2024-02-08T21:31:28.823Z,75.23
2024-02-08T21:34:35.963Z,75.03
2024-02-08T21:37:38.688Z,75.49
2024-02-08T21:40:43.452Z,75.56
2024-02-08T21:43:48.931Z,75.47
2024-02-08T21:46:51.399Z,75.19
2024-02-08T21:49:56.576Z,75.56
2024-02-08T21:52:58.633Z,75.79
2024-02-08T21:56:00.670Z,75.82
2024-02-08T21:59:02.595Z,75.68
2024-02-08T22:02:11.033Z,75.71
2024-02-08T22:05:13.569Z,75.80
2024-02-08T22:08:15.959Z,75.86
2024-02-08T22:11:17.913Z,75.89
2024-02-08T22:14:21.032Z,75.86
2024-02-08T22:17:23.136Z,75.82
2024-02-08T22:20:25.758Z,75.96
2024-02-08T22:23:27.761Z,76.35
2024-02-08T22:26:30.450Z,76.30
2024-02-08T22:29:33.190Z,76.52
2024-02-08T22:32:36.867Z,76.69
2024-02-08T22:35:38.927Z,76.51
2024-02-08T22:38:42.045Z,76.22
2024-02-08T22:41:48.984Z,76.03
2024-02-08T22:44:51.230Z,75.74
2024-02-08T22:47:54.318Z,75.99
2024-02-08T22:50:56.073Z,76.30
2024-02-08T22:53:58.479Z,75.95
2024-02-08T22:57:00.502Z,75.24
2024-02-08T23:00:22.261Z,75.31
2024-02-08T23:03:25.629Z,75.37
2024-02-08T23:06:32.095Z,74.62
2024-02-08T23:09:36.095Z,74.44
2024-02-08T23:12:40.286Z,74.04
2024-02-08T23:15:46.951Z,74.14
2024-02-08T23:18:52.508Z,74.49
2024-02-08T23:21:55.360Z,74.16
2024-02-08T23:24:59.380Z,74.32
2024-02-08T23:28:04.289Z,74.06
2024-02-08T23:31:10.046Z,74.37
2024-02-08T23:34:13.337Z,73.59
2024-02-08T23:37:17.748Z,73.86
2024-02-08T23:40:19.899Z,72.63
2024-02-08T23:43:22.023Z,71.96
2024-02-08T23:46:25.560Z,71.95
2024-02-08T23:49:27.842Z,72.26
2024-02-08T23:52:30.022Z,72.70
2024-02-08T23:55:32.606Z,72.62
2024-02-08T23:58:35.168Z,72.52
